Springfield, South Carolina
Current Conditions -  °F | °C
As of 1:15 AM on Saturday 29 Nov 2014 (Local Time) from KBNL Reporting Station
NA  
Wind Chill: 32°   Ceiling: NA
Heat Index: 32°   Visibility: NA
Dew Point: 30°   Wind: 0mph
Humidity: 93%   Direction: NA
Pressure: 30.31"   Gusts: NA
Location:  33.5°N, 81.28°W
Report Text: KBNL 290615Z AUTO 00000KT 00/M01 A3031 RMK AO2
Loading
Personal Weather Stations






























Interactive Weather Map New forecast layout! Learn more

10-Day Weather Forecast

Advertisements
Track Severe Weather on mobile